Airfield :
LOGIN :

Register | Disclaimer

   EN    FR    IT 

 










Legend :    VFR   Marginal VFR   IFR   Intensive IFR   Very Intensive IFR
Visi :
Ceiling :
>= 8 km
>= 3000ft
5 to 8 km
1000 to 3000 ft
1500m to 5 km
500 to 1000 ft
800 to 1500m
200 to 500 ft
< 800m
< 200 ft
Symbols :   Thunderstorms  Fog  Heavy snow  Heavy precipitations  Wind > 20 kt
SIGMETs :     Misc.  Thunderstorms  Icing  Turbulence  Mountain Waves  Volcanic Ashes







- Airport Elevation : 231 ft
- IATA code : WTN


EGXW - RAF Waddington

CURRENT METAR :
  • 160550Z 19008KT CAVOK 11/09 Q1013 RMK BLU

EXPIRED METARs :
  • 160450Z AUTO 17005KT 9999 NCD 09/07 Q1013
  • 160350Z AUTO 21005KT 9999 FEW070/// 09/07 Q1013

TAF TAF EGXW
Valid from the 16 at 06:00 until the 17 at 00:00 UTC


160554Z 1606/1624 19008KT 9999 FEW045
TEMPO 1611/1618 21018G28KT 7000 SHRA
PROB30
TEMPO 1613/1618 4000 +SHRA BKN025CB
PROB40
TEMPO 1618/1622 -RA BKN020
No reported NOTAMs for that airfield.



MET'MAP, your aeronautical weather chart ! - Copyright ORBIFLY December 2007 - Disclaimer

ORBIFLY MET'MAP TEAM :

Programming & Development : Alexandra Zaïnal
Concept & Development : Baudouin d'Aumeries
Co-Development & Prog : Marc-Olivier Méhu
Technical & hardware support : Manuel Goepfert

Contact : metmap@orbifly.com




SOURCES & CREDITS :

   NOAA